Date,TemperatureHighF,TemperatureAvgF,TemperatureLowF,DewpointHighF,DewpointAvgF,DewpointLowF,HumidityHigh,HumidityAvg,HumidityLow,PressureMaxIn,PressureMinIn,WindSpeedMaxMPH,WindSpeedAvgMPH,GustSpeedMaxMPH,PrecipitationSumIn
2012-1-1,36,22,16,19,8,2,87,56,22,0.00,40.00,5,-644,0,0.00
2012-1-2,50,35,15,22,14,10,89,45,23,0.00,40.00,0,-909,8,0.00
2012-1-3,56,45,25,19,13,7,62,27,14,0.00,40.00,8,-373,16,0.00
2012-1-4,60,39,20,19,13,8,68,38,13,0.00,40.00,2,-874,10,0.00
2012-1-5,66,46,42,23,6,-100,36,23,14,0.00,40.00,4,-471,13,0.00
2012-1-6,47,25,33,23,19,-100,63,51,27,0.00,40.00,2,-749,13,0.00
2012-1-7,-200,0,200,22,-36,-100,0,0,100,0.00,40.00,0,-999,0,0.00
2012-1-8,-200,0,200,-100,-100,-100,0,0,100,0.00,40.00,0,-999,0,0.00
2012-1-9,-200,0,200,-100,-100,-100,0,0,100,0.00,40.00,0,-999,0,0.00
2012-1-10,47,11,39,14,-68,-100,31,7,20,0.00,40.00,4,-747,17,0.00
2012-1-11,38,17,2,22,11,1,98,80,32,0.00,40.00,2,-349,13,0.00
2012-1-12,40,24,3,8,0,-100,94,36,16,0.00,40.00,2,-416,13,0.00
2012-1-13,45,32,16,9,3,-4,38,26,18,0.00,40.00,10,-88,20,0.00
2012-1-14,51,41,26,14,9,4,45,24,16,0.00,40.00,14,-58,22,0.00
2012-1-15,50,45,39,8,4,-1,23,16,9,0.00,40.00,10,4,25,0.00
2012-1-16,42,23,10,20,13,-100,100,72,18,0.00,40.00,6,-481,18,0.00
2012-1-17,25,18,7,5,-4,-8,91,36,27,0.00,40.00,10,4,23,0.04
2012-1-18,40,32,21,21,10,-6,57,37,11,0.00,40.00,17,0,29,0.04
2012-1-19,55,45,35,30,25,20,59,45,34,0.00,40.00,15,-26,31,0.00
2012-1-20,48,41,30,40,22,2,100,48,17,0.00,40.00,14,-211,28,0.00
2012-1-21,61,44,27,31,21,15,71,42,23,0.00,40.00,10,-88,23,0.00
2012-1-22,42,34,26,21,12,4,64,40,34,0.00,40.00,9,-120,23,0.00
2012-1-23,44,31,22,15,-28,-70,32,16,31,0.00,40.00,9,-610,26,0.00
2012-1-24,32,25,16,-64,-70,-100,0,0,100,0.00,40.00,0,-907,9,0.00
2012-1-25,42,21,13,24,-39,-100,79,22,31,0.00,40.00,6,-700,18,0.00
2012-1-26,49,36,28,28,3,-100,72,34,22,0.00,40.00,7,-289,18,0.00
2012-1-27,38,22,11,21,2,-100,100,63,35,0.00,40.00,6,-359,14,0.00
2012-1-28,40,25,9,10,-10,-100,97,27,14,0.00,40.00,96,-205,96,0.00
2012-1-29,52,36,30,25,2,-100,49,29,21,0.00,40.00,9,-372,22,0.00
2012-1-30,51,37,28,20,3,-100,58,29,18,0.00,40.00,6,-328,21,0.00
2012-1-31,43,30,24,16,0,-100,54,34,31,0.00,40.00,4,-659,14,0.00
2012-2-1,45,31,20,33,4,-100,100,38,24,0.00,40.00,2,-714,13,0.00
2012-2-2,42,27,24,34,0,-100,100,45,23,0.00,40.00,9,-707,16,0.00
2012-2-3,30,21,21,26,12,-100,100,88,74,0.00,40.00,1,-763,8,0.04
2012-2-4,33,18,13,22,7,-100,100,82,59,0.00,40.00,0,-922,7,0.04
2012-2-5,38,20,10,21,-1,-100,99,64,40,0.00,40.00,0,-832,8,0.12
2012-2-6,38,26,18,22,13,-63,100,62,33,0.00,40.00,4,-281,12,0.08
2012-2-7,20,16,10,18,13,-100,100,93,71,0.00,40.00,0,-874,7,0.00
2012-2-8,41,23,4,25,13,3,98,72,23,0.00,40.00,0,-822,7,0.08
2012-2-9,48,30,17,34,18,11,86,63,25,0.00,40.00,1,-744,9,0.04
2012-2-10,39,20,13,19,14,-4,100,76,38,0.00,40.00,5,-506,12,0.04
2012-2-11,21,10,1,12,7,0,99,89,68,0.00,40.00,2,-700,10,0.04
2012-2-12,42,22,4,27,16,3,100,82,46,0.00,40.00,0,-819,7,0.04
2012-2-13,43,28,19,29,23,18,100,86,39,0.00,40.00,0,-908,9,0.00
2012-2-14,45,29,19,30,20,15,100,75,32,0.00,40.00,3,-672,16,0.00
2012-2-15,34,21,15,22,18,14,100,89,58,0.00,40.00,0,-916,0,0.00
2012-2-16,45,27,13,24,14,6,100,62,29,0.00,40.00,2,-649,15,0.00
2012-2-17,46,29,21,23,9,-100,96,46,16,0.00,40.00,6,-482,12,0.00
2012-2-18,41,25,13,20,14,7,98,65,31,0.00,40.00,2,-652,10,0.00
2012-2-19,43,31,22,22,13,6,87,51,23,0.00,40.00,1,-691,8,0.00
2012-2-20,35,27,21,25,8,-2,100,47,23,0.00,40.00,12,-407,22,0.00
2012-2-21,44,33,23,22,11,-100,67,41,26,0.00,40.00,21,-78,23,0.00
2012-2-22,49,41,34,34,24,21,99,53,37,0.00,40.00,14,8,30,0.00
2012-2-23,34,27,22,34,25,16,100,91,58,0.00,40.00,3,-790,10,0.12
2012-2-24,20,5,19,23,-11,-100,82,47,32,0.00,40.00,3,-685,11,0.00
2012-2-25,54,38,17,18,11,-4,88,36,14,0.00,40.00,9,-310,30,0.00
2012-2-26,36,23,18,7,-4,-26,51,27,12,0.00,40.00,5,-109,16,0.00
2012-2-27,44,26,13,15,5,-6,65,38,25,0.00,40.00,3,-395,9,0.00
2012-2-28,41,30,21,29,13,-100,82,51,33,0.00,40.00,8,-372,18,0.00
2012-2-29,44,34,25,15,9,1,51,34,19,0.00,40.00,34,8,34,0.00
2012-3-1,39,27,21,24,7,-100,95,57,27,0.00,40.00,9,-310,16,0.00
2012-3-2,29,17,12,20,-15,-100,95,39,25,0.00,40.00,7,-530,18,0.00
2012-3-3,36,24,16,15,-10,-100,43,32,31,0.00,40.00,107,-158,107,0.00
2012-3-4,54,36,34,20,-1,-100,51,28,20,0.00,40.00,10,-278,24,0.00
2012-3-5,57,42,31,18,-3,-100,44,18,12,0.00,40.00,10,-151,22,0.00
2012-3-6,65,46,39,11,-6,-100,29,13,7,0.00,40.00,8,-250,20,0.00
2012-3-7,40,23,21,30,14,-100,100,88,30,0.00,40.00,2,-556,9,0.00
2012-3-8,42,27,15,24,7,-100,100,56,20,0.00,40.00,4,-606,9,0.00
2012-3-9,56,40,27,14,8,3,49,27,11,0.00,40.00,4,-381,11,0.00
2012-3-10,63,46,32,28,14,-100,57,29,11,0.00,40.00,3,-409,11,0.00
2012-3-11,62,45,30,28,17,1,74,38,9,0.00,40.00,6,-557,18,0.00
2012-3-12,60,50,42,21,15,11,33,23,12,0.00,40.00,10,-140,22,0.00
2012-3-13,67,53,40,19,11,6,38,17,8,0.00,40.00,9,-266,27,0.00
2012-3-14,68,54,40,15,6,-100,24,13,7,0.00,40.00,8,-172,27,0.00
2012-3-15,64,53,42,29,16,7,51,23,14,0.00,40.00,4,-311,13,0.00
2012-3-16,69,53,38,25,19,13,53,27,12,0.00,40.00,7,-499,16,0.00
2012-3-17,70,54,38,25,16,13,40,22,11,0.00,40.00,4,-492,8,0.00
2012-3-18,63,47,35,32,17,-100,63,31,8,0.00,40.00,7,-325,0,0.00
2012-3-19,43,34,26,18,5,-6,49,28,11,0.00,40.00,5,-269,0,0.00
2012-3-20,50,34,21,14,8,-100,62,35,19,0.00,40.00,3,-510,0,0.00
2012-3-21,61,42,25,22,12,-55,49,31,19,0.00,40.00,5,-591,0,0.00
2012-3-22,64,46,34,26,18,-100,62,35,16,0.00,40.00,4,-480,6,0.00
2012-3-23,71,51,31,27,18,-100,59,30,13,0.00,40.00,4,-568,11,0.00
2012-3-24,66,56,41,33,23,11,62,29,16,0.00,40.00,5,-369,15,0.00
2012-3-25,68,51,36,41,32,24,83,50,23,0.00,40.00,2,-644,9,0.00
2012-3-26,74,53,40,32,20,5,68,31,6,0.00,40.00,9,-414,21,0.00
2012-3-27,66,52,40,20,14,9,33,20,9,0.00,40.00,8,-234,18,0.00
2012-3-28,70,52,35,27,19,12,47,27,12,0.00,40.00,4,-627,13,0.00
2012-3-29,68,57,49,26,17,7,34,19,12,0.00,40.00,36,-85,36,0.00
2012-3-30,71,57,39,26,21,14,44,25,14,0.00,40.00,3,-289,13,0.00
2012-3-31,76,60,42,32,25,16,52,27,15,0.00,40.00,2,-603,0,0.00
2012-4-1,76,61,44,25,18,12,36,19,9,0.00,40.00,4,-561,7,0.00
2012-4-2,56,38,30,31,26,14,100,65,19,0.00,40.00,5,-673,10,0.04
2012-4-3,35,30,27,32,28,-100,100,95,49,0.00,40.00,0,-999,0,0.20
2012-4-4,58,40,25,39,32,23,100,77,42,0.00,40.00,4,-668,10,0.24
2012-4-5,64,48,32,41,31,-100,96,56,31,0.00,40.00,2,-613,11,0.08
2012-4-6,68,49,31,38,17,-100,85,38,8,0.00,40.00,5,-423,25,0.00
2012-4-7,57,43,33,22,10,-100,47,25,10,0.00,40.00,10,-160,23,0.00
2012-4-8,66,48,29,21,13,1,56,27,6,0.00,40.00,4,-540,14,0.00
2012-4-9,60,47,32,29,20,-100,59,36,25,0.00,40.00,6,-543,12,0.16
2012-4-10,68,52,34,38,28,-100,63,42,24,0.00,40.00,2,-449,9,0.08
2012-4-11,64,48,35,51,39,27,99,72,46,0.00,40.00,5,-588,16,0.00
2012-4-12,62,49,36,42,26,-100,100,48,18,0.00,40.00,9,-360,19,0.00
2012-4-13,61,47,37,32,18,9,74,32,13,0.00,40.00,6,-161,17,0.00
2012-4-14,52,41,32,35,27,-100,100,62,37,0.00,40.00,4,-697,12,0.04
2012-4-15,50,36,30,45,29,-100,100,81,40,0.00,40.00,10,-607,69,0.12
2012-4-16,58,41,27,33,24,18,100,58,23,0.00,40.00,3,-499,12,0.00
2012-4-17,63,49,35,31,22,19,59,34,20,0.00,40.00,3,-467,14,0.00
2012-4-18,59,38,34,33,23,-25,71,49,22,0.00,40.00,8,-486,19,0.00
2012-4-19,62,42,36,41,26,-100,100,59,21,0.00,40.00,104,-436,17,0.08
2012-4-20,68,48,32,36,31,-100,98,59,23,0.00,40.00,4,-407,13,0.04
2012-4-21,69,57,44,37,29,-100,56,35,17,0.00,40.00,6,-282,13,0.00
2012-4-22,70,53,36,38,33,29,82,50,24,0.00,40.00,3,-561,13,0.00
2012-4-23,78,61,47,38,28,-100,67,30,15,0.00,40.00,5,-332,13,0.00
2012-4-24,81,65,51,37,28,24,38,25,12,0.00,40.00,7,-416,19,0.00
2012-4-25,75,60,45,48,29,18,82,32,15,0.00,40.00,2,-632,11,0.00
2012-4-26,72,58,49,47,36,-100,90,47,27,0.00,40.00,3,-622,13,0.00
2012-4-27,59,48,38,47,31,-100,100,59,21,0.00,40.00,7,-421,23,0.00
2012-4-28,62,44,31,28,14,-100,66,32,10,0.00,40.00,142,-85,142,0.00
2012-4-29,57,43,27,31,27,23,88,56,33,0.00,40.00,4,-551,12,0.00
2012-4-30,72,54,34,27,18,13,62,28,10,0.00,40.00,4,-475,14,0.00
2012-5-1,70,59,48,34,25,14,49,26,16,0.00,40.00,5,-210,19,0.00
2012-5-2,69,56,44,52,34,-100,98,45,30,0.00,40.00,4,-509,15,0.00
2012-5-3,76,58,43,39,25,-100,71,33,18,0.00,40.00,5,-483,14,0.00
2012-5-4,82,66,52,31,22,-100,31,19,11,0.00,40.00,4,-413,13,0.00
2012-5-5,79,62,44,42,23,-100,47,24,9,0.00,40.00,7,-259,14,0.00
2012-5-6,52,41,34,39,24,-100,100,57,25,0.00,40.00,6,-591,14,0.31
2012-5-7,42,36,31,39,33,-100,100,94,85,0.00,40.00,0,-824,7,0.51
2012-5-8,59,43,33,41,25,-100,100,61,36,0.00,40.00,4,-560,8,0.04
2012-5-9,72,56,38,59,27,-100,81,38,17,0.00,40.00,5,-460,12,0.00
2012-5-10,83,64,45,32,21,-100,35,20,8,0.00,40.00,3,-562,17,0.00
2012-5-11,60,38,31,41,32,25,100,81,34,0.00,40.00,6,-375,17,0.16
2012-5-12,44,36,32,41,33,-100,100,97,83,0.00,40.00,0,-901,6,0.20
2012-5-13,60,44,34,42,37,33,100,79,36,0.00,40.00,0,-915,9,0.04
2012-5-14,71,55,38,51,24,18,100,35,12,0.00,40.00,3,-265,11,0.00
2012-5-15,75,60,47,34,25,20,38,26,13,0.00,40.00,4,-290,11,0.00
2012-5-16,76,59,45,39,29,-100,54,34,16,0.00,40.00,5,-437,18,0.00
2012-5-17,80,61,53,60,32,-100,100,36,19,0.00,40.00,4,-698,12,0.08
2012-5-18,75,62,51,39,30,-100,49,31,18,0.00,40.00,3,-481,12,0.04
2012-5-19,55,44,39,46,39,-100,100,86,42,0.00,40.00,2,-768,12,0.31
2012-5-20,68,53,36,44,38,34,98,63,33,0.00,40.00,3,-626,12,0.04
2012-5-21,79,62,48,40,30,-100,60,34,15,0.00,40.00,1,-574,10,0.00
2012-5-22,85,67,53,36,24,-100,38,22,9,0.00,40.00,4,-373,15,0.00
2012-5-23,62,51,42,48,37,-100,100,64,23,0.00,40.00,32,-601,32,0.43
2012-5-24,63,48,39,42,29,-100,100,55,25,0.00,40.00,7,-324,17,0.35
2012-5-25,65,49,41,44,40,31,92,72,45,0.00,40.00,0,-815,9,0.00
2012-5-26,80,61,42,53,40,-100,97,55,9,0.00,40.00,7,-407,20,0.00
2012-5-27,65,56,44,25,14,4,36,17,9,0.00,40.00,9,-24,21,0.00
2012-5-28,73,57,43,27,20,-100,47,24,12,0.00,40.00,4,-275,20,0.00
2012-5-29,73,56,38,35,26,-100,51,33,18,0.00,40.00,3,-600,12,0.00
2012-5-30,79,62,46,38,29,22,69,32,12,0.00,40.00,4,-305,13,0.00
2012-5-31,68,54,40,40,36,-100,79,54,35,0.00,40.00,3,-502,13,0.00
2012-6-1,78,62,44,44,40,34,80,49,21,0.00,40.00,7,-561,14,0.00
2012-6-2,77,60,50,53,42,-100,100,56,32,0.00,40.00,3,-485,12,0.12
2012-6-3,83,68,58,54,43,35,65,41,19,0.00,40.00,4,-561,0,0.08
2012-6-4,86,70,54,47,39,-100,60,34,15,0.00,40.00,5,-304,24,0.00
2012-6-5,81,66,53,47,42,36,64,43,27,0.00,40.00,7,-432,17,0.00
2012-6-6,79,65,51,72,42,-100,100,46,25,0.00,40.00,8,-452,18,0.00
2012-6-7,78,64,52,56,52,49,92,68,40,0.00,40.00,5,-467,12,0.00
2012-6-8,87,71,53,54,42,25,87,42,10,0.00,40.00,4,-380,13,0.00
2012-6-9,93,77,57,29,23,-100,29,14,8,0.00,40.00,3,-233,13,0.00
2012-6-10,75,66,54,32,18,3,39,16,5,0.00,40.00,10,-122,20,0.00
2012-6-11,71,58,41,57,22,10,100,25,13,0.00,40.00,6,-387,15,0.00
2012-6-12,83,66,48,32,24,16,41,22,8,0.00,40.00,2,-575,15,0.00
2012-6-13,90,72,54,31,22,19,31,16,7,0.00,40.00,4,-353,14,0.00
2012-6-14,77,68,58,41,32,16,40,27,15,0.00,40.00,4,-339,14,0.00
2012-6-15,83,66,51,57,44,30,100,49,18,0.00,40.00,2,-624,14,0.00
2012-6-16,74,61,50,52,43,-100,70,55,38,0.00,40.00,5,-610,13,0.00
2012-6-17,90,74,53,42,30,20,57,23,7,0.00,40.00,5,-393,20,0.00
2012-6-18,93,80,64,32,24,20,29,13,7,0.00,40.00,4,-166,17,0.00
2012-6-19,89,80,63,41,27,17,42,15,7,0.00,40.00,7,-95,15,0.00
2012-6-20,67,59,50,49,42,24,94,57,29,0.00,40.00,4,-369,12,0.00
2012-6-21,83,67,55,51,40,29,51,38,26,0.00,40.00,4,-520,13,0.00
2012-6-22,97,74,59,47,30,10,51,23,7,0.00,40.00,5,-245,17,0.00
2012-6-23,93,82,63,35,27,10,17,13,8,0.00,40.00,5,-478,17,0.00
2012-6-24,95,82,64,44,31,23,30,16,9,0.00,40.00,5,-492,17,0.00
2012-6-25,96,80,63,67,38,31,100,24,11,0.00,40.00,5,-474,13,0.00
2012-6-26,94,82,67,46,38,31,35,20,14,0.00,40.00,4,-344,18,0.00
2012-6-27,91,77,64,58,44,37,78,34,16,0.00,40.00,8,-297,15,0.00
2012-6-28,90,72,60,63,45,39,90,41,17,0.00,40.00,5,-425,16,0.00
2012-6-29,96,79,62,49,40,32,62,26,11,0.00,40.00,4,-419,13,0.00
2012-6-30,90,78,64,42,36,32,34,22,13,0.00,40.00,3,-419,12,0.00
2012-7-1,95,79,62,48,37,27,52,24,9,0.00,40.00,4,-390,12,0.00
2012-7-2,92,76,60,59,43,34,74,34,12,0.00,40.00,10,-401,17,0.00
2012-7-3,90,74,62,54,46,40,62,38,18,0.00,40.00,5,-439,12,0.00
2012-7-4,91,78,62,48,41,36,48,28,14,0.00,40.00,4,-607,14,0.00
2012-7-5,87,72,62,63,54,43,92,55,32,0.00,40.00,6,-495,12,0.00
2012-7-6,78,63,55,60,53,47,100,73,38,0.00,40.00,6,-512,16,0.00
2012-7-7,72,60,54,64,56,53,100,90,65,0.00,40.00,2,-724,11,0.00
2012-7-8,70,60,55,63,58,55,100,94,72,0.00,40.00,0,-908,7,0.00
2012-7-9,75,63,55,60,57,53,100,82,50,0.00,40.00,2,-656,9,0.00
2012-7-10,78,65,53,60,54,44,99,70,41,0.00,40.00,3,-628,10,0.00
2012-7-11,87,70,57,54,48,43,74,50,25,0.00,40.00,2,-622,9,0.00
2012-7-12,84,71,56,66,49,42,87,48,28,0.00,40.00,3,-656,12,0.00
2012-7-13,88,74,61,49,44,37,54,36,16,0.00,40.00,3,-495,11,0.00
2012-7-14,87,73,61,49,45,39,48,37,22,0.00,40.00,3,-548,15,0.00
2012-7-15,85,72,61,57,48,42,82,46,28,0.00,40.00,4,-450,15,0.00
2012-7-16,83,68,57,56,49,43,91,54,31,0.00,40.00,8,-376,17,0.00
2012-7-17,84,71,57,53,48,43,75,47,29,0.00,40.00,5,-492,13,0.00
2012-7-18,88,74,62,51,44,38,55,36,18,0.00,40.00,4,-663,13,0.00
2012-7-19,91,77,62,55,44,38,52,32,17,0.00,40.00,58,-486,58,0.00
2012-7-20,96,79,63,51,44,38,45,31,14,0.00,40.00,5,-488,12,0.00
2012-7-21,91,79,63,50,45,40,46,31,19,0.00,40.00,4,-651,13,0.00
2012-7-22,85,74,60,56,47,42,86,40,28,0.00,40.00,9,-665,24,0.00
2012-7-23,89,73,60,56,49,42,86,45,24,0.00,40.00,8,-152,17,0.00
2012-7-24,88,74,59,55,47,43,85,42,25,0.00,40.00,4,-453,18,0.00
2012-7-25,84,69,56,58,52,44,100,58,28,0.00,40.00,4,-418,13,0.00
2012-7-26,83,69,56,57,50,44,88,55,29,0.00,40.00,3,-495,12,0.00
2012-7-27,85,70,60,65,49,43,81,50,26,0.00,40.00,2,-545,13,0.00
2012-7-28,73,37,60,59,33,-21,70,45,25,0.00,40.00,6,-495,14,0.00
2012-7-29,86,65,61,62,47,-3,100,56,28,0.00,40.00,3,-484,15,0.00
2012-7-30,59,22,59,60,32,-17,100,71,40,0.00,40.00,3,-683,12,0.00
2012-7-31,93,72,59,61,51,41,87,49,18,0.00,40.00,2,-524,13,0.00
2012-8-1,84,71,60,70,52,42,98,55,30,0.00,40.00,2,-422,12,0.00
2012-8-2,82,70,59,65,51,40,77,53,31,0.00,40.00,2,-513,12,0.00
2012-8-3,86,76,63,49,37,32,55,25,14,0.00,40.00,10,-90,20,0.00
2012-8-4,76,62,52,49,45,41,77,56,32,0.00,40.00,6,-477,12,0.00
2012-8-5,87,70,55,50,44,37,65,42,21,0.00,40.00,3,-454,10,0.00
2012-8-6,92,75,64,52,43,35,67,34,15,0.00,40.00,0,-563,10,0.00
2012-8-7,90,73,59,51,46,35,65,41,20,0.00,40.00,4,-541,13,0.00
2012-8-8,89,75,62,41,35,31,35,24,14,0.00,40.00,3,-244,13,0.00
2012-8-9,79,70,58,51,42,33,54,37,29,0.00,40.00,1,-706,9,0.00
2012-8-10,85,67,57,50,45,29,67,40,24,0.00,40.00,2,-737,9,0.00
2012-8-11,104,69,60,55,44,-100,65,41,12,0.00,40.00,4,-542,11,0.00
2012-8-12,80,67,53,47,41,37,67,42,25,0.00,40.00,4,-576,14,0.00
2012-8-13,77,65,58,50,42,37,77,44,30,0.00,40.00,1,-510,9,0.00
2012-8-14,88,69,54,54,42,36,61,39,21,0.00,40.00,5,-715,13,0.00
2012-8-15,90,72,54,48,40,32,75,35,13,0.00,40.00,3,-559,13,0.00
2012-8-16,66,56,49,49,47,45,89,71,53,0.00,40.00,2,-666,10,0.00
2012-8-17,81,61,42,50,45,41,100,62,27,0.00,40.00,2,-612,10,0.00
2012-8-18,76,64,53,45,40,36,67,42,27,0.00,40.00,4,-505,12,0.00
2012-8-19,76,63,48,41,35,30,55,37,23,0.00,40.00,5,-477,13,0.00
2012-8-20,80,64,53,51,36,30,78,37,22,0.00,40.00,1,-602,11,0.00
2012-8-21,83,68,55,42,38,35,55,35,22,0.00,40.00,4,-527,14,0.00
2012-8-22,88,72,60,55,41,34,72,34,19,0.00,40.00,2,-584,12,0.00
2012-8-23,79,66,57,57,51,47,98,64,34,0.00,40.00,2,-588,11,0.00
2012-8-24,83,69,56,51,44,40,64,44,25,0.00,40.00,2,-513,12,0.00
2012-8-25,76,67,56,46,39,23,56,37,26,0.00,40.00,5,-341,14,0.00
2012-8-26,88,72,52,43,32,27,57,25,12,0.00,40.00,5,-549,13,0.00
2012-8-27,88,74,59,50,38,30,50,29,16,0.00,40.00,2,-464,10,0.00
2012-8-28,90,73,61,62,46,41,75,40,20,0.00,40.00,2,-694,10,0.00
2012-8-29,91,74,60,47,43,39,52,35,20,0.00,40.00,3,-506,13,0.00
2012-8-30,86,74,65,47,42,39,46,33,21,0.00,40.00,6,-573,13,0.00
2012-8-31,85,71,57,62,40,31,100,36,14,0.00,40.00,6,-590,13,0.00
2012-9-1,88,71,60,59,44,37,91,43,18,0.00,40.00,2,-591,17,0.00
2012-9-2,85,73,61,53,44,33,69,38,17,0.00,40.00,4,-386,14,0.00
2012-9-3,83,69,57,48,40,33,66,39,17,0.00,40.00,9,-611,18,0.00
2012-9-4,87,72,56,39,30,19,45,24,10,0.00,40.00,2,-366,20,0.00
2012-9-5,80,65,49,33,26,19,36,23,16,0.00,40.00,5,-617,14,0.00
2012-9-6,90,70,54,34,26,19,30,18,10,0.00,40.00,3,-633,13,0.00
2012-9-7,64,55,46,50,43,30,96,68,28,0.00,40.00,3,-580,11,0.00
2012-9-8,73,58,45,48,39,34,100,53,26,0.00,40.00,4,-555,11,0.00
2012-9-9,82,65,49,38,32,25,52,32,12,0.00,40.00,5,-261,13,0.00
2012-9-10,89,75,57,68,32,26,100,21,11,0.00,40.00,2,-464,11,0.00
2012-9-11,83,66,52,55,42,33,100,46,20,0.00,40.00,2,-639,12,0.00
2012-9-12,53,48,46,53,48,46,100,100,100,0.00,40.00,0,-912,7,0.00
2012-9-13,66,52,40,50,42,36,100,74,36,0.00,40.00,2,-586,11,0.00
2012-9-14,72,58,47,40,33,29,74,41,19,0.00,40.00,4,-358,13,0.00
2012-9-15,82,65,50,34,28,21,49,26,10,0.00,40.00,6,-355,13,0.00
2012-9-16,84,67,54,31,22,16,32,18,9,0.00,40.00,1,-496,13,0.00
2012-9-17,60,52,44,46,40,30,93,66,32,0.00,40.00,5,-411,11,0.00
2012-9-18,73,56,42,41,36,28,94,51,32,0.00,40.00,6,-597,11,0.00
2012-9-19,76,63,50,36,30,25,43,31,13,0.00,40.00,6,-596,12,0.00
2012-9-20,75,62,50,36,28,23,43,28,17,0.00,40.00,6,-484,12,0.00
2012-9-21,74,60,47,39,30,24,46,32,21,0.00,40.00,3,-495,11,0.00
2012-9-22,74,58,43,40,32,-100,59,39,26,0.00,40.00,3,-551,10,0.00
2012-9-23,82,67,51,37,28,21,45,25,10,0.00,40.00,2,-405,12,0.00
2012-9-24,77,64,54,46,38,33,71,40,22,0.00,40.00,1,-647,12,0.00
2012-9-25,66,55,46,49,39,35,100,58,40,0.00,40.00,4,-742,9,0.00
2012-9-26,58,49,46,58,49,46,100,100,93,0.00,40.00,1,-839,1,0.00
2012-9-27,60,49,40,57,46,38,100,89,64,0.00,40.00,2,-846,8,0.00
2012-9-28,65,53,42,48,39,29,93,63,45,0.00,40.00,4,-624,10,0.00
2012-9-29,72,57,46,47,37,28,75,49,27,0.00,40.00,4,-665,11,0.00
2012-9-30,70,58,49,47,37,32,61,46,29,0.00,40.00,1,-708,10,0.00
2012-10-1,64,54,45,46,40,37,77,60,38,0.00,40.00,2,-656,10,0.00
2012-10-2,81,60,42,39,32,25,82,41,13,0.00,40.00,0,-740,8,0.00
2012-10-3,78,59,33,39,28,10,79,34,14,0.00,40.00,8,-325,20,0.00
2012-10-4,37,33,31,28,25,24,86,74,62,0.00,40.00,0,-652,7,0.00
2012-10-5,34,30,26,31,28,23,100,94,77,0.00,40.00,1,-763,8,0.00
2012-10-6,29,27,26,29,27,24,100,99,91,0.00,40.00,0,-999,0,0.00
2012-10-7,48,34,21,32,23,18,100,69,31,0.00,40.00,2,-663,9,0.00
2012-10-8,71,48,28,35,15,1,75,32,9,0.00,40.00,1,-579,11,0.00
2012-10-9,55,38,30,35,29,13,98,74,18,0.00,40.00,1,-696,10,0.00
2012-10-10,62,42,28,38,31,25,100,69,34,0.00,40.00,1,-798,10,0.00
2012-10-11,58,48,35,38,33,26,91,58,42,0.00,40.00,2,-680,9,0.00
2012-10-12,61,44,31,47,37,31,100,81,45,0.00,40.00,0,-739,13,0.00
2012-10-13,56,48,43,42,33,27,92,58,45,0.00,40.00,4,-463,10,0.00
2012-10-14,64,49,36,40,33,28,94,59,25,0.00,40.00,1,-687,6,0.00
2012-10-15,72,56,40,35,28,21,74,38,15,0.00,40.00,5,-443,19,0.00
2012-10-16,69,57,43,43,32,26,82,40,25,0.00,40.00,7,-227,20,0.00
2012-10-17,53,45,38,27,12,2,47,24,11,0.00,40.00,10,3,24,0.00
2012-10-18,63,43,25,23,16,9,76,37,13,0.00,40.00,3,-499,14,0.00
2012-10-19,70,53,33,29,21,15,62,31,13,0.00,40.00,2,-450,14,0.00
2012-10-20,71,57,45,26,21,17,40,24,12,0.00,40.00,5,-523,17,0.00
2012-10-21,69,56,41,31,24,17,56,30,14,0.00,40.00,7,-346,14,0.00
2012-10-22,51,38,34,41,25,-17,82,58,27,0.00,40.00,2,-719,9,0.00
2012-10-23,71,56,44,33,22,12,58,28,12,0.00,40.00,8,-444,20,0.00
2012-10-24,44,38,25,39,30,25,100,78,51,0.00,40.00,0,-734,8,0.00
2012-10-25,30,25,22,28,24,22,100,99,91,0.00,40.00,0,-892,7,0.00
2012-10-26,30,23,20,27,23,20,100,97,86,0.00,40.00,0,-999,4,0.00
2012-10-27,46,31,19,33,26,18,100,84,39,0.00,40.00,0,-824,10,0.00
2012-10-28,59,38,26,40,30,24,99,76,36,0.00,40.00,11,-686,11,0.00
2012-10-29,65,48,37,38,32,28,86,58,29,0.00,40.00,3,-770,8,0.00
2012-10-30,67,48,34,36,30,24,85,56,19,0.00,40.00,0,-915,10,0.00
2012-10-31,64,48,35,41,29,24,73,50,25,0.00,40.00,2,-680,10,0.00
2012-11-1,66,51,40,34,22,13,60,35,13,0.00,40.00,4,-478,15,0.00
2012-11-2,54,45,35,33,24,17,71,45,29,0.00,40.00,2,-724,9,0.00
2012-11-3,53,40,33,33,27,21,77,61,41,0.00,40.00,2,-812,9,0.00
2012-11-4,60,44,33,29,24,16,78,46,26,0.00,40.00,0,-822,11,0.00
2012-11-5,61,47,30,35,29,25,91,54,31,0.00,40.00,4,-399,16,0.00
2012-11-6,61,50,38,50,30,21,100,48,27,0.00,40.00,2,-617,9,0.00
2012-11-7,68,53,36,30,20,14,62,31,13,0.00,40.00,6,-478,18,0.00
2012-11-8,55,46,34,31,24,18,74,45,22,0.00,40.00,3,-568,16,0.00
2012-11-9,62,43,31,35,27,18,79,55,22,0.00,40.00,3,-638,11,0.00
2012-11-10,46,32,16,33,25,16,100,80,37,0.00,40.00,3,-422,14,0.00
2012-11-11,32,21,12,22,8,-3,100,62,22,0.00,40.00,5,-498,17,0.00
2012-11-12,48,33,21,16,5,-2,48,29,14,0.00,40.00,9,-282,20,0.00
2012-11-13,51,37,25,21,15,6,77,42,23,0.00,40.00,2,-489,17,0.00
2012-11-14,50,35,24,25,18,-100,84,54,25,0.00,40.00,4,-623,14,0.00
2012-11-15,38,31,25,29,24,16,98,79,53,0.00,40.00,0,-830,7,0.00
2012-11-16,60,39,24,30,20,12,93,52,16,0.00,40.00,0,-912,7,0.00
2012-11-17,53,47,39,34,24,-21,52,39,29,0.00,40.00,9,-76,20,0.00
2012-11-18,55,38,38,29,21,-20,71,43,30,0.00,40.00,4,-196,16,0.00
2012-11-19,56,42,33,31,23,18,67,48,26,0.00,40.00,3,-728,10,0.00
2012-11-20,64,46,32,35,22,15,70,42,16,0.00,40.00,1,-794,8,0.00
2012-11-21,65,51,36,21,14,8,48,23,9,0.00,40.00,6,-331,17,0.00
2012-11-22,52,44,25,31,20,9,65,39,19,0.00,40.00,8,-123,19,0.00
2012-11-23,48,31,18,31,13,8,100,49,26,0.00,40.00,2,-798,9,0.00
2012-11-24,60,50,34,19,14,10,49,22,16,0.00,40.00,11,-386,22,0.00
2012-11-25,60,46,32,20,14,8,63,26,14,0.00,40.00,7,-255,16,0.00
2012-11-26,32,23,17,25,22,17,100,95,58,0.00,40.00,0,-999,7,0.00
2012-11-27,57,40,20,21,8,-1,100,30,10,0.00,40.00,8,-442,18,0.00
2012-11-28,53,37,29,18,10,5,49,31,16,0.00,40.00,0,-909,11,0.00
2012-11-29,58,49,42,28,21,11,48,33,22,0.00,40.00,5,-396,17,0.00
2012-11-30,59,46,34,25,21,19,59,39,20,0.00,40.00,6,-550,20,0.00
2012-12-1,58,47,36,27,23,18,60,38,27,0.00,40.00,5,-308,16,0.00
2012-12-2,65,48,32,26,16,9,62,30,10,0.00,40.00,13,-565,23,0.00
2012-12-3,53,45,31,28,13,-7,47,27,9,0.00,40.00,9,-206,24,0.00
2012-12-4,51,37,22,22,11,2,47,32,20,0.00,40.00,2,-670,11,0.00
2012-12-5,64,52,42,29,25,1,53,35,10,0.00,40.00,8,-130,19,0.00
2012-12-6,47,36,25,32,28,25,100,74,42,0.00,40.00,1,-684,14,0.00
2012-12-7,46,34,25,26,21,16,100,61,29,0.00,40.00,7,-484,16,0.00
2012-12-8,39,29,19,29,19,7,100,67,39,0.00,40.00,6,-365,16,0.00
2012-12-9,22,14,3,8,-1,-4,84,51,34,0.00,40.00,5,-429,12,0.00
2012-12-10,34,21,5,10,2,-6,72,43,24,0.00,40.00,8,-355,16,0.00
2012-12-11,38,26,11,17,10,4,98,57,27,0.00,40.00,9,-463,19,0.00
2012-12-12,51,41,33,20,12,9,42,29,19,0.00,40.00,10,4,23,0.00
2012-12-13,51,39,30,16,11,8,46,30,17,0.00,40.00,2,-412,13,0.00
2012-12-14,42,33,25,28,11,7,100,40,25,0.00,40.00,0,-944,7,0.00
2012-12-15,40,30,24,22,18,-14,92,63,7,0.00,40.00,2,-656,9,0.00
2012-12-16,35,26,20,24,15,0,99,67,24,0.00,40.00,1,-694,15,0.00
2012-12-17,41,33,23,25,15,5,76,47,36,0.00,40.00,11,-167,23,0.00
2012-12-18,35,28,21,28,23,18,100,81,54,0.00,40.00,0,-826,7,0.00
2012-12-19,26,14,1,21,10,-4,100,83,46,0.00,40.00,0,-909,7,0.00
2012-12-20,40,27,1,10,3,-4,92,36,18,0.00,40.00,6,-227,17,0.00
2012-12-21,53,37,22,25,7,0,57,30,10,0.00,40.00,3,-430,22,0.00
2012-12-22,49,37,24,16,2,-7,48,21,9,0.00,40.00,3,-458,16,0.00
2012-12-23,42,37,22,17,9,-7,67,31,9,0.00,40.00,14,-70,28,0.00
2012-12-24,32,24,12,21,16,12,100,75,49,0.00,40.00,0,-826,8,0.00
2012-12-25,17,7,-1,12,4,-2,98,89,66,0.00,40.00,1,-700,7,0.00
2012-12-26,32,17,5,19,13,4,100,85,51,0.00,40.00,1,-777,9,0.00
2012-12-27,24,16,7,18,14,5,100,92,75,0.00,40.00,2,-825,9,0.00
2012-12-28,31,15,2,13,5,-2,97,68,35,0.00,40.00,3,-771,10,0.00
2012-12-29,39,19,6,10,2,-8,78,49,17,0.00,40.00,0,-916,5,0.00
2012-12-30,42,28,15,12,5,-2,75,39,16,0.00,40.00,5,-363,20,0.00
2012-12-31,21,14,6,14,10,5,100,86,65,0.00,40.00,0,-826,7,0.00
2013-1-1,30,16,7,13,6,-4,96,65,34,0.00,40.00,1,-735,8,0.00